createdAt,value
2023-03-17T00:00:14.591Z,42.90
2023-03-17T00:01:17.107Z,39.80
2023-03-17T00:02:21.233Z,36.22
2023-03-17T00:03:25.599Z,45.90
2023-03-17T00:04:28.976Z,45.80
2023-03-17T00:05:33.272Z,52.38
2023-03-17T00:06:37.004Z,42.05
2023-03-17T00:07:39.407Z,49.60
2023-03-17T00:08:42.551Z,52.08
2023-03-17T00:09:44.875Z,50.83
2023-03-17T00:10:49.666Z,50.47
2023-03-17T00:11:51.826Z,48.45
2023-03-17T00:12:56.505Z,49.85
2023-03-17T00:13:58.606Z,46.90
2023-03-17T00:15:02.231Z,50.13
2023-03-17T00:16:05.281Z,57.80
2023-03-17T00:17:11.070Z,52.53
2023-03-17T00:18:16.423Z,45.30
2023-03-17T00:19:22.777Z,48.03
2023-03-17T00:20:27.836Z,50.95
2023-03-17T00:21:34.092Z,49.65
2023-03-17T00:22:36.295Z,53.03
2023-03-17T00:23:39.652Z,48.65
2023-03-17T00:24:42.688Z,48.20
2023-03-17T00:26:06.929Z,45.50
2023-03-17T00:27:13.377Z,44.92
2023-03-17T00:28:17.570Z,39.75
2023-03-17T00:29:21.110Z,41.67
2023-03-17T00:30:27.077Z,44.42
2023-03-17T00:31:30.736Z,45.92
2023-03-17T00:32:33.191Z,43.90
2023-03-17T00:33:37.170Z,46.45
2023-03-17T00:34:41.623Z,41.17
2023-03-17T00:35:46.387Z,37.83
2023-03-17T00:36:50.071Z,38.33
2023-03-17T00:37:54.068Z,39.63
2023-03-17T00:38:57.202Z,33.30
2023-03-17T00:40:01.648Z,34.72
2023-03-17T00:41:04.454Z,33.10
2023-03-17T00:42:07.768Z,39.60
2023-03-17T00:43:11.188Z,39.83
2023-03-17T00:44:14.380Z,37.17
2023-03-17T00:45:16.778Z,39.25
2023-03-17T00:46:23.438Z,35.80
2023-03-17T00:47:25.368Z,35.35
2023-03-17T00:48:29.791Z,35.83
2023-03-17T00:49:32.650Z,33.80
2023-03-17T00:50:35.489Z,32.60
2023-03-17T00:51:37.473Z,32.58
2023-03-17T00:52:40.645Z,35.17
2023-03-17T00:53:44.191Z,36.13
2023-03-17T00:54:46.992Z,33.55
2023-03-17T00:55:48.955Z,30.92
2023-03-17T00:56:53.412Z,32.67
2023-03-17T00:57:55.243Z,32.08
2023-03-17T00:59:02.628Z,33.22
2023-03-17T01:00:06.566Z,32.28
2023-03-17T01:01:09.640Z,33.92
2023-03-17T01:02:12.255Z,33.92
2023-03-17T01:03:16.400Z,36.13
2023-03-17T01:04:19.502Z,38.83
2023-03-17T01:05:23.692Z,37.13
2023-03-17T01:06:25.941Z,39.85
2023-03-17T01:07:30.398Z,38.50
2023-03-17T01:08:32.533Z,35.95
2023-03-17T01:09:35.696Z,41.72
2023-03-17T01:10:37.820Z,42.30
2023-03-17T01:11:40.721Z,38.25
2023-03-17T01:12:45.502Z,35.58
2023-03-17T01:13:49.807Z,38.50
2023-03-17T01:14:53.020Z,43.20
2023-03-17T01:15:57.072Z,43.17
2023-03-17T01:16:59.839Z,41.28
2023-03-17T01:18:03.088Z,42.17
2023-03-17T01:19:06.868Z,45.38
2023-03-17T01:20:15.891Z,43.35
2023-03-17T01:21:17.670Z,41.90
2023-03-17T01:22:22.221Z,47.85
2023-03-17T01:23:24.041Z,48.38
2023-03-17T01:24:28.472Z,52.17
2023-03-17T01:25:31.515Z,45.92
2023-03-17T01:26:34.253Z,44.40
2023-03-17T01:27:36.541Z,45.25
2023-03-17T01:28:40.253Z,44.63
2023-03-17T01:29:42.037Z,42.35
2023-03-17T01:30:46.964Z,40.60
2023-03-17T01:31:49.218Z,40.58
2023-03-17T01:32:52.119Z,43.90
2023-03-17T01:33:54.372Z,41.22
2023-03-17T01:34:58.050Z,42.50
2023-03-17T01:35:59.857Z,46.05
2023-03-17T01:37:02.930Z,49.13
2023-03-17T01:38:06.077Z,47.90
2023-03-17T01:39:08.904Z,52.58
2023-03-17T01:40:14.751Z,57.53
2023-03-17T01:41:18.202Z,49.53
2023-03-17T01:42:20.845Z,50.35
2023-03-17T01:43:25.315Z,55.03
2023-03-17T01:44:27.939Z,55.65
2023-03-17T01:46:09.461Z,55.15
2023-03-17T01:47:14.590Z,52.60
2023-03-17T01:48:17.313Z,47.13
2023-03-17T01:49:24.970Z,46.72
2023-03-17T01:50:26.829Z,42.67
2023-03-17T01:51:33.228Z,43.15
2023-03-17T01:52:36.495Z,44.15
2023-03-17T01:53:39.684Z,45.88
2023-03-17T01:54:45.095Z,41.72
2023-03-17T01:55:47.853Z,41.38
2023-03-17T01:56:52.660Z,41.85
2023-03-17T01:57:56.381Z,36.10
2023-03-17T01:59:01.154Z,36.65
2023-03-17T02:00:09.580Z,36.05
2023-03-17T02:01:17.905Z,40.08
2023-03-17T02:02:25.895Z,39.67
2023-03-17T02:03:29.704Z,39.80
2023-03-17T02:04:33.106Z,38.03
2023-03-17T02:05:35.515Z,34.95
2023-03-17T02:06:55.132Z,33.50
2023-03-17T02:08:00.625Z,34.92
2023-03-17T02:09:03.469Z,35.42
2023-03-17T02:10:08.692Z,35.38
2023-03-17T02:11:12.738Z,35.20
2023-03-17T02:12:16.203Z,36.17
2023-03-17T02:13:18.471Z,35.33
2023-03-17T02:14:21.405Z,37.28
2023-03-17T02:15:24.302Z,43.97
2023-03-17T02:16:28.093Z,41.38
2023-03-17T02:17:31.974Z,39.50
2023-03-17T02:18:35.076Z,37.83
2023-03-17T02:19:37.398Z,39.08
2023-03-17T02:21:32.969Z,37.13
2023-03-17T02:22:36.550Z,35.13
2023-03-17T02:23:38.326Z,38.17
2023-03-17T02:24:44.999Z,38.25
2023-03-17T02:25:48.159Z,41.03
2023-03-17T02:26:51.963Z,39.97
2023-03-17T02:27:59.377Z,40.38
2023-03-17T02:29:01.526Z,40.53
2023-03-17T02:30:06.323Z,39.38
2023-03-17T02:31:09.411Z,40.28
2023-03-17T02:32:12.439Z,37.72
2023-03-17T02:33:14.222Z,38.40
2023-03-17T02:34:17.246Z,40.30
2023-03-17T02:35:20.359Z,38.22
2023-03-17T02:36:23.157Z,38.60
2023-03-17T02:37:27.316Z,39.40
2023-03-17T02:38:29.234Z,42.75
2023-03-17T02:39:32.260Z,35.38
2023-03-17T02:40:34.020Z,35.67
2023-03-17T02:41:37.307Z,36.58
2023-03-17T02:42:39.584Z,36.20
2023-03-17T02:43:42.874Z,35.83
2023-03-17T02:44:45.969Z,37.35
2023-03-17T02:45:47.834Z,36.85
2023-03-17T02:46:50.731Z,37.10
2023-03-17T02:47:52.987Z,37.13
2023-03-17T02:48:56.325Z,35.38
2023-03-17T02:49:59.294Z,35.33
2023-03-17T02:51:01.500Z,35.22
2023-03-17T02:52:04.812Z,37.65
2023-03-17T02:53:08.561Z,36.80
2023-03-17T02:54:11.416Z,36.70
2023-03-17T02:55:13.233Z,35.33
2023-03-17T02:56:16.757Z,37.83
2023-03-17T02:57:18.743Z,38.50
2023-03-17T02:58:22.731Z,36.20
2023-03-17T02:59:24.549Z,36.08
2023-03-17T03:00:28.442Z,35.35
2023-03-17T03:01:31.383Z,37.67
2023-03-17T03:02:33.313Z,35.72
2023-03-17T03:03:37.604Z,35.53
2023-03-17T03:04:40.443Z,35.20
2023-03-17T03:05:42.689Z,32.83
2023-03-17T03:06:45.746Z,33.97
2023-03-17T03:07:47.533Z,35.88
2023-03-17T03:08:51.800Z,32.28
2023-03-17T03:09:53.654Z,36.47
2023-03-17T03:10:56.470Z,39.13
2023-03-17T03:11:58.354Z,33.20
2023-03-17T03:13:19.609Z,32.13
2023-03-17T03:14:22.712Z,37.08
2023-03-17T03:15:24.535Z,36.83
2023-03-17T03:16:27.335Z,36.50
2023-03-17T03:17:29.732Z,43.88
2023-03-17T03:18:32.794Z,43.90
2023-03-17T03:19:34.642Z,39.85
2023-03-17T03:20:38.858Z,38.67
2023-03-17T03:21:40.724Z,35.38
2023-03-17T03:22:43.628Z,37.28
2023-03-17T03:23:46.564Z,43.75
2023-03-17T03:24:50.075Z,38.72
2023-03-17T03:25:52.837Z,36.55
2023-03-17T03:26:54.731Z,37.38
2023-03-17T03:27:57.528Z,40.22
2023-03-17T03:29:00.073Z,41.38
2023-03-17T03:30:03.145Z,41.55
2023-03-17T03:31:05.622Z,38.80
2023-03-17T03:32:08.628Z,40.38
2023-03-17T03:33:11.755Z,38.35
2023-03-17T03:34:14.564Z,38.85
2023-03-17T03:35:16.931Z,35.55
2023-03-17T03:36:20.319Z,37.13
2023-03-17T03:37:22.110Z,38.78
2023-03-17T03:38:24.898Z,44.08
2023-03-17T03:39:26.782Z,46.00
2023-03-17T03:40:31.358Z,43.92
2023-03-17T03:41:33.280Z,39.70
2023-03-17T03:42:36.269Z,40.80
2023-03-17T03:43:38.064Z,39.03
2023-03-17T03:44:40.808Z,35.85
2023-03-17T03:45:42.830Z,36.72
2023-03-17T03:46:45.775Z,35.72
2023-03-17T03:47:47.589Z,38.05
2023-03-17T03:48:50.468Z,37.40
2023-03-17T03:49:52.340Z,37.72
2023-03-17T03:50:57.764Z,35.80
2023-03-17T03:51:59.788Z,33.33
2023-03-17T03:53:02.645Z,35.50
2023-03-17T03:54:05.616Z,35.65
2023-03-17T03:55:08.928Z,35.63
2023-03-17T03:56:13.099Z,33.63
2023-03-17T03:57:15.401Z,32.30
2023-03-17T03:58:18.566Z,34.80
2023-03-17T03:59:20.892Z,33.42
2023-03-17T04:00:24.036Z,34.70
2023-03-17T04:01:26.154Z,35.40
2023-03-17T04:02:29.696Z,33.72
2023-03-17T04:03:31.625Z,33.67
2023-03-17T04:04:34.685Z,32.33
2023-03-17T04:05:36.521Z,32.88
2023-03-17T04:06:39.881Z,30.90
2023-03-17T04:07:43.161Z,33.13
2023-03-17T04:08:46.062Z,31.20
2023-03-17T04:09:49.211Z,31.48
2023-03-17T04:10:52.296Z,33.25
2023-03-17T04:11:55.477Z,34.30
2023-03-17T04:12:58.267Z,34.25
2023-03-17T04:14:00.454Z,36.55
2023-03-17T04:15:03.302Z,35.88
2023-03-17T04:16:05.758Z,36.70
2023-03-17T04:17:09.040Z,35.83
2023-03-17T04:18:11.545Z,40.58
2023-03-17T04:19:15.247Z,37.72
2023-03-17T04:20:18.253Z,45.35
2023-03-17T04:21:21.539Z,45.78
2023-03-17T04:22:23.375Z,44.03
2023-03-17T04:23:26.446Z,38.45
2023-03-17T04:24:28.832Z,44.25
2023-03-17T04:25:32.441Z,41.13
2023-03-17T04:26:34.311Z,39.13
2023-03-17T04:27:38.812Z,41.05
2023-03-17T04:28:40.809Z,38.30
2023-03-17T04:29:43.921Z,37.65
2023-03-17T04:30:45.767Z,34.97
2023-03-17T04:31:48.631Z,35.88
2023-03-17T04:32:51.161Z,36.15
2023-03-17T04:33:54.047Z,36.78
2023-03-17T04:34:55.891Z,33.55
2023-03-17T04:35:59.572Z,32.95
2023-03-17T04:37:02.469Z,34.25
2023-03-17T04:38:04.340Z,32.38
2023-03-17T04:39:07.578Z,30.55
2023-03-17T04:40:11.507Z,32.10
2023-03-17T04:41:14.590Z,29.88
2023-03-17T04:42:16.522Z,30.40
2023-03-17T04:43:20.641Z,30.70
2023-03-17T04:44:22.432Z,30.08
2023-03-17T04:45:25.721Z,33.75
2023-03-17T04:46:27.603Z,30.92
2023-03-17T04:47:30.950Z,32.28
2023-03-17T04:48:32.923Z,30.05
2023-03-17T04:49:35.808Z,32.53
2023-03-17T04:50:37.564Z,32.50
2023-03-17T04:51:41.174Z,30.38
2023-03-17T04:52:42.965Z,30.60
2023-03-17T04:53:46.097Z,30.70
2023-03-17T04:54:47.993Z,32.00
2023-03-17T04:55:51.514Z,30.23
2023-03-17T04:56:53.333Z,33.33
2023-03-17T04:57:56.224Z,32.65
2023-03-17T04:58:59.542Z,29.77
2023-03-17T05:00:02.317Z,32.17
2023-03-17T05:01:05.137Z,36.65
2023-03-17T05:02:08.277Z,32.65
2023-03-17T05:03:25.816Z,33.25
2023-03-17T05:04:31.995Z,33.78
2023-03-17T05:05:34.544Z,35.50
2023-03-17T05:06:37.683Z,34.97
2023-03-17T05:07:40.052Z,36.50
2023-03-17T05:08:44.786Z,36.85
2023-03-17T05:09:47.489Z,39.47
2023-03-17T05:10:51.049Z,43.42
2023-03-17T05:11:52.806Z,39.45
2023-03-17T05:12:55.701Z,40.20
2023-03-17T05:13:59.147Z,47.65
2023-03-17T05:15:01.934Z,44.35
2023-03-17T05:16:03.975Z,40.35
2023-03-17T05:17:07.168Z,40.10
2023-03-17T05:18:08.917Z,40.90
2023-03-17T05:19:11.745Z,43.85
2023-03-17T05:20:14.405Z,43.85
2023-03-17T05:21:17.345Z,42.28
2023-03-17T05:22:19.537Z,43.05
2023-03-17T05:23:23.410Z,44.55
2023-03-17T05:24:25.242Z,44.42
2023-03-17T05:25:27.996Z,43.40
2023-03-17T05:26:29.827Z,43.47
2023-03-17T05:27:32.846Z,45.83
2023-03-17T05:28:34.780Z,46.50
2023-03-17T05:29:39.213Z,48.95
2023-03-17T05:30:42.016Z,54.78
2023-03-17T05:31:44.910Z,53.97
2023-03-17T05:32:47.201Z,57.40
2023-03-17T05:33:51.018Z,67.45
2023-03-17T05:34:53.176Z,66.85
2023-03-17T05:35:56.289Z,61.47
2023-03-17T05:36:58.105Z,54.65
2023-03-17T05:38:00.937Z,54.92
2023-03-17T05:39:04.008Z,63.53
2023-03-17T05:40:08.265Z,61.30
2023-03-17T05:41:10.669Z,45.03
2023-03-17T05:42:13.863Z,41.63
2023-03-17T05:43:15.590Z,43.63
2023-03-17T05:44:18.483Z,43.90
2023-03-17T05:45:22.075Z,46.58
2023-03-17T05:46:24.883Z,46.20
2023-03-17T05:47:26.666Z,41.90
2023-03-17T05:48:29.469Z,42.65
2023-03-17T05:49:31.542Z,42.17
2023-03-17T05:50:34.350Z,40.67
2023-03-17T05:51:37.076Z,38.42
2023-03-17T05:52:40.036Z,38.47
2023-03-17T05:53:43.321Z,37.28
2023-03-17T05:54:47.911Z,36.00
2023-03-17T05:55:52.337Z,35.80
2023-03-17T05:56:54.167Z,36.28
2023-03-17T05:57:57.362Z,34.13
2023-03-17T05:58:59.749Z,40.60
2023-03-17T06:00:05.376Z,39.55
2023-03-17T06:01:09.247Z,42.85
2023-03-17T06:02:13.211Z,37.88
2023-03-17T06:03:16.141Z,35.60
2023-03-17T06:04:18.021Z,41.40
2023-03-17T06:05:20.800Z,39.15
2023-03-17T06:06:23.326Z,33.55
2023-03-17T06:07:28.384Z,33.97
2023-03-17T06:08:33.866Z,36.80
2023-03-17T06:09:35.706Z,36.83
2023-03-17T06:10:39.231Z,32.70
2023-03-17T06:11:41.730Z,34.35
2023-03-17T06:12:44.532Z,32.30
2023-03-17T06:13:46.918Z,29.42
2023-03-17T06:14:49.682Z,28.38
2023-03-17T06:15:52.151Z,26.38
2023-03-17T06:16:57.420Z,24.23
2023-03-17T06:17:59.424Z,21.20
2023-03-17T06:19:02.288Z,17.77
2023-03-17T06:20:05.410Z,14.80
2023-03-17T06:21:08.181Z,13.77
2023-03-17T06:22:10.107Z,14.13
2023-03-17T06:23:13.577Z,13.30
2023-03-17T06:24:15.653Z,14.82
2023-03-17T06:25:18.836Z,14.13
2023-03-17T06:26:20.676Z,12.82
2023-03-17T06:27:23.646Z,11.77
2023-03-17T06:28:25.739Z,12.88
2023-03-17T06:29:30.051Z,12.02
2023-03-17T06:30:32.971Z,12.73
2023-03-17T06:31:35.976Z,12.30
2023-03-17T06:32:40.334Z,10.75
2023-03-17T06:33:42.258Z,11.20
2023-03-17T06:34:45.148Z,11.80
2023-03-17T06:35:47.467Z,11.35
2023-03-17T06:36:50.492Z,10.43
2023-03-17T06:37:54.046Z,9.95
2023-03-17T06:38:58.431Z,10.30
2023-03-17T06:40:01.147Z,9.95
2023-03-17T06:41:03.922Z,10.48
2023-03-17T06:42:06.470Z,10.13
2023-03-17T06:43:09.298Z,9.63
2023-03-17T06:44:11.343Z,10.00
2023-03-17T06:45:14.522Z,9.55
2023-03-17T06:46:16.668Z,10.32
2023-03-17T06:47:19.863Z,9.88
2023-03-17T06:48:24.215Z,8.30
2023-03-17T06:49:26.457Z,9.30
2023-03-17T06:50:29.285Z,9.98
2023-03-17T06:51:32.381Z,9.80
2023-03-17T06:52:35.158Z,9.43
2023-03-17T06:53:37.300Z,7.97
2023-03-17T06:54:41.278Z,9.27
2023-03-17T06:55:44.949Z,8.80
2023-03-17T06:56:46.826Z,9.80
2023-03-17T06:57:51.293Z,9.05
2023-03-17T06:58:53.889Z,9.13
2023-03-17T06:59:56.705Z,8.32
2023-03-17T07:00:59.773Z,9.23
2023-03-17T07:02:02.595Z,9.68
2023-03-17T07:03:05.804Z,10.13
2023-03-17T07:04:09.531Z,10.05
2023-03-17T07:05:13.979Z,8.82
2023-03-17T07:06:15.788Z,9.45
2023-03-17T07:07:20.230Z,9.30
2023-03-17T07:08:23.037Z,9.73
2023-03-17T07:09:25.794Z,8.88
2023-03-17T07:10:28.549Z,9.23
2023-03-17T07:11:32.692Z,8.77
2023-03-17T07:12:34.464Z,9.45
2023-03-17T07:13:38.789Z,8.85
2023-03-17T07:14:40.612Z,8.85
2023-03-17T07:15:45.756Z,7.93
2023-03-17T07:16:50.210Z,9.15
2023-03-17T07:17:52.115Z,8.63
2023-03-17T07:18:55.246Z,8.18
2023-03-17T07:20:00.032Z,8.25
2023-03-17T07:21:02.358Z,8.55
2023-03-17T07:22:05.173Z,8.65
2023-03-17T07:23:07.533Z,8.60
2023-03-17T07:24:12.411Z,8.27
2023-03-17T07:25:15.236Z,9.13
2023-03-17T07:26:17.135Z,7.22
2023-03-17T07:27:22.862Z,8.45
2023-03-17T07:28:25.118Z,8.23
2023-03-17T07:29:29.155Z,6.60
2023-03-17T07:30:31.037Z,6.95
2023-03-17T07:31:34.204Z,7.25
2023-03-17T07:32:37.621Z,7.40
2023-03-17T07:33:40.649Z,6.82
2023-03-17T07:34:43.439Z,7.38
2023-03-17T07:35:47.254Z,7.60
2023-03-17T07:36:50.176Z,6.82
2023-03-17T07:37:51.962Z,7.35
2023-03-17T07:38:55.308Z,7.60
2023-03-17T07:39:57.246Z,8.43
2023-03-17T07:41:00.768Z,7.72
2023-03-17T07:42:04.095Z,6.82
2023-03-17T07:43:06.558Z,7.55
2023-03-17T07:44:09.588Z,7.57
2023-03-17T07:45:11.912Z,7.65
2023-03-17T07:46:14.725Z,7.53
2023-03-17T07:47:16.683Z,7.47
2023-03-17T07:48:19.936Z,7.13
2023-03-17T07:49:38.091Z,7.13
2023-03-17T07:50:43.441Z,7.25
2023-03-17T07:51:46.884Z,7.53
2023-03-17T07:52:49.805Z,8.73
2023-03-17T07:53:52.996Z,6.70
2023-03-17T07:54:56.091Z,7.50
2023-03-17T07:55:57.886Z,7.15
2023-03-17T07:57:00.925Z,6.95
2023-03-17T07:58:03.012Z,5.72
2023-03-17T07:59:06.577Z,6.50
2023-03-17T08:00:13.501Z,6.68
2023-03-17T08:01:16.476Z,6.50
2023-03-17T08:02:19.978Z,6.07
2023-03-17T08:03:21.860Z,6.38
2023-03-17T08:04:24.707Z,5.97
2023-03-17T08:05:27.089Z,6.82
2023-03-17T08:06:30.062Z,6.25
2023-03-17T08:07:33.496Z,6.32
2023-03-17T08:08:36.978Z,6.13
2023-03-17T08:09:38.883Z,6.80
2023-03-17T08:10:42.248Z,7.45
2023-03-17T08:11:44.049Z,6.03
2023-03-17T08:12:51.918Z,5.97
2023-03-17T08:13:53.779Z,5.47
2023-03-17T08:14:56.593Z,5.55
2023-03-17T08:15:59.372Z,5.85
2023-03-17T08:17:01.254Z,5.85
2023-03-17T08:18:04.040Z,4.90
2023-03-17T08:19:06.803Z,4.45
2023-03-17T08:20:44.028Z,5.10
2023-03-17T08:21:46.144Z,4.97
2023-03-17T08:22:51.076Z,5.82
2023-03-17T08:23:52.835Z,4.57
2023-03-17T08:24:55.736Z,5.28
2023-03-17T08:25:57.980Z,4.97
2023-03-17T08:27:01.029Z,4.82
2023-03-17T08:28:04.500Z,4.30
2023-03-17T08:29:08.067Z,4.05
2023-03-17T08:30:12.578Z,3.90
2023-03-17T08:31:17.404Z,6.00
2023-03-17T08:32:19.569Z,5.88
2023-03-17T08:33:23.473Z,4.43
2023-03-17T08:34:26.451Z,4.20
2023-03-17T08:35:30.244Z,4.00
2023-03-17T08:36:32.139Z,5.05
2023-03-17T08:37:34.952Z,4.28
2023-03-17T08:38:40.091Z,4.45
2023-03-17T08:39:42.915Z,5.07
2023-03-17T08:40:44.748Z,4.65
2023-03-17T08:41:47.699Z,4.70
2023-03-17T08:42:51.138Z,7.18
2023-03-17T08:43:53.045Z,4.90
2023-03-17T08:44:55.890Z,4.60
2023-03-17T08:46:02.666Z,4.32
2023-03-17T08:47:05.553Z,4.30
2023-03-17T08:48:08.417Z,5.88
2023-03-17T08:49:10.678Z,4.00
2023-03-17T08:50:19.530Z,4.47
2023-03-17T08:51:24.487Z,5.03
2023-03-17T08:52:27.621Z,5.40
2023-03-17T08:53:29.818Z,4.60
2023-03-17T08:54:36.882Z,4.50
2023-03-17T08:55:38.726Z,3.88
2023-03-17T08:56:42.946Z,4.22
2023-03-17T08:57:47.335Z,4.20
2023-03-17T08:58:50.809Z,4.13
2023-03-17T08:59:53.631Z,3.90
2023-03-17T09:00:58.776Z,4.68
2023-03-17T09:02:01.625Z,4.85
2023-03-17T09:03:05.697Z,6.28
2023-03-17T09:04:08.856Z,4.63
2023-03-17T09:05:14.006Z,4.32
2023-03-17T09:06:15.773Z,4.70
2023-03-17T09:07:18.870Z,5.03
2023-03-17T09:08:21.751Z,4.80
2023-03-17T09:09:24.567Z,4.78
2023-03-17T09:10:29.155Z,4.25
2023-03-17T09:11:33.598Z,4.85
2023-03-17T09:12:35.549Z,4.60
2023-03-17T09:13:39.091Z,4.07
2023-03-17T09:14:44.315Z,4.30
2023-03-17T09:15:47.299Z,4.70
2023-03-17T09:16:49.635Z,4.90
2023-03-17T09:17:52.403Z,4.50
2023-03-17T09:18:54.262Z,4.45
2023-03-17T09:19:57.383Z,4.38
2023-03-17T09:20:59.389Z,4.20
2023-03-17T09:22:03.093Z,5.60
2023-03-17T09:23:07.875Z,5.20
2023-03-17T09:24:11.171Z,4.75
2023-03-17T09:25:12.966Z,5.10
2023-03-17T09:26:17.431Z,5.00
2023-03-17T09:27:20.418Z,4.90
2023-03-17T09:28:22.253Z,5.13
2023-03-17T09:29:25.159Z,5.70
2023-03-17T09:30:27.921Z,5.78
2023-03-17T09:31:29.715Z,5.13
2023-03-17T09:32:32.755Z,5.97
2023-03-17T09:33:34.652Z,5.65
2023-03-17T09:34:37.468Z,5.78
2023-03-17T09:35:41.107Z,5.93
2023-03-17T09:36:43.972Z,5.18
2023-03-17T09:37:46.224Z,5.18
2023-03-17T09:38:49.139Z,5.00
2023-03-17T09:39:52.030Z,4.88
2023-03-17T09:40:57.024Z,5.35
2023-03-17T09:42:08.959Z,6.00
2023-03-17T09:43:20.278Z,5.15
2023-03-17T09:44:30.321Z,6.15
2023-03-17T09:45:34.953Z,4.97
2023-03-17T09:46:46.158Z,5.63
2023-03-17T09:48:04.798Z,5.85
2023-03-17T09:49:08.059Z,6.03
2023-03-17T09:50:14.806Z,6.07
2023-03-17T09:51:18.344Z,6.00
2023-03-17T09:52:27.216Z,5.00
2023-03-17T09:53:34.089Z,4.80
2023-03-17T09:54:38.103Z,4.75
2023-03-17T09:55:41.646Z,4.07
2023-03-17T09:56:47.771Z,4.95
2023-03-17T09:57:52.071Z,5.07
2023-03-17T09:58:58.606Z,4.88
2023-03-17T10:00:06.369Z,4.30
2023-03-17T10:01:12.797Z,4.20
2023-03-17T10:02:19.362Z,10.52
2023-03-17T10:03:22.233Z,3.92
2023-03-17T10:04:25.176Z,5.32
2023-03-17T10:05:28.909Z,3.67
2023-03-17T10:06:35.550Z,3.30
2023-03-17T10:07:44.059Z,3.47
2023-03-17T10:08:50.488Z,4.40
2023-03-17T10:09:59.312Z,4.05
2023-03-17T10:11:05.072Z,4.72
2023-03-17T10:12:11.745Z,3.72
2023-03-17T10:13:24.275Z,4.75
2023-03-17T10:14:46.164Z,3.90
2023-03-17T10:15:50.356Z,3.85
2023-03-17T10:16:55.936Z,3.85
2023-03-17T10:17:58.588Z,3.53
2023-03-17T10:19:04.460Z,6.53
2023-03-17T10:20:10.371Z,3.65
2023-03-17T10:21:14.196Z,4.05
2023-03-17T10:22:23.704Z,3.85
2023-03-17T10:23:28.221Z,3.90
2023-03-17T10:24:33.483Z,4.03
2023-03-17T10:25:36.600Z,3.38
2023-03-17T10:26:43.382Z,3.85
2023-03-17T10:27:48.875Z,3.63
2023-03-17T10:28:54.295Z,3.70
2023-03-17T10:29:57.041Z,3.63
2023-03-17T10:31:03.817Z,3.60
2023-03-17T10:32:09.228Z,3.60
2023-03-17T10:33:11.417Z,5.45
2023-03-17T10:34:15.967Z,3.65
2023-03-17T10:35:18.720Z,3.03
2023-03-17T10:36:34.880Z,3.90
2023-03-17T10:37:37.677Z,6.28
2023-03-17T10:38:39.535Z,3.90
2023-03-17T10:39:47.189Z,3.20
2023-03-17T10:40:57.538Z,3.58
2023-03-17T10:42:04.095Z,4.45
2023-03-17T10:43:08.775Z,3.67
2023-03-17T10:44:22.230Z,3.67
2023-03-17T10:45:29.336Z,3.42
2023-03-17T10:46:33.334Z,3.70
2023-03-17T10:47:39.602Z,3.88
2023-03-17T10:48:41.559Z,3.45
2023-03-17T10:49:46.065Z,3.65
2023-03-17T10:50:49.708Z,4.28
2023-03-17T10:51:53.017Z,4.40
2023-03-17T10:53:00.602Z,3.83
2023-03-17T10:54:08.053Z,3.97
2023-03-17T10:55:15.216Z,4.32
2023-03-17T10:56:22.535Z,3.88
2023-03-17T10:57:25.323Z,4.65
2023-03-17T10:58:38.361Z,4.40
2023-03-17T10:59:44.876Z,3.55
2023-03-17T11:00:55.281Z,3.88
2023-03-17T11:01:59.334Z,4.10
2023-03-17T11:03:10.121Z,3.85
2023-03-17T11:04:27.400Z,3.90
2023-03-17T11:05:31.256Z,4.03
2023-03-17T11:06:39.188Z,4.50
2023-03-17T11:07:41.086Z,3.72
2023-03-17T11:08:48.868Z,3.90
2023-03-17T11:09:52.523Z,3.85
2023-03-17T11:10:56.864Z,3.63
2023-03-17T11:12:04.386Z,3.70
2023-03-17T11:13:08.251Z,3.53
2023-03-17T11:14:13.342Z,3.85
2023-03-17T11:15:20.152Z,3.55
2023-03-17T11:16:23.745Z,3.60
2023-03-17T11:17:34.993Z,3.20
2023-03-17T11:18:37.931Z,3.67
2023-03-17T11:19:46.106Z,3.65
2023-03-17T11:20:54.255Z,3.80
2023-03-17T11:22:04.831Z,4.68
2023-03-17T11:23:10.766Z,3.28
2023-03-17T11:24:17.372Z,3.25
2023-03-17T11:25:20.135Z,3.13
2023-03-17T11:26:39.818Z,2.72
2023-03-17T11:27:44.730Z,4.22
2023-03-17T11:28:51.771Z,4.00
2023-03-17T11:30:07.334Z,3.90
2023-03-17T11:31:15.365Z,3.60
2023-03-17T11:32:26.592Z,3.55
2023-03-17T11:33:35.407Z,2.97
2023-03-17T11:34:52.044Z,3.47
2023-03-17T11:35:58.195Z,3.40
2023-03-17T11:37:06.893Z,3.03
2023-03-17T11:38:20.519Z,2.88
2023-03-17T11:39:25.884Z,2.72
2023-03-17T11:40:32.642Z,4.32
2023-03-17T11:41:46.447Z,2.92
2023-03-17T11:42:55.382Z,2.70
2023-03-17T11:44:25.078Z,3.38
2023-03-17T11:45:29.810Z,2.95
2023-03-17T11:46:36.918Z,3.28
2023-03-17T11:47:45.789Z,3.53
2023-03-17T11:48:52.946Z,3.08
2023-03-17T11:50:01.743Z,2.80
2023-03-17T11:51:08.260Z,2.97
2023-03-17T11:52:21.938Z,3.65
2023-03-17T11:53:37.725Z,3.83
2023-03-17T11:54:46.989Z,3.90
2023-03-17T11:55:51.758Z,3.22
2023-03-17T11:56:56.776Z,3.47
2023-03-17T11:58:01.371Z,4.00
2023-03-17T11:59:06.771Z,3.75
2023-03-17T12:00:17.088Z,4.18
2023-03-17T12:01:22.598Z,3.90
2023-03-17T12:02:29.992Z,4.60
2023-03-17T12:03:39.467Z,4.72
2023-03-17T12:04:48.670Z,4.38
2023-03-17T12:05:55.587Z,4.45
2023-03-17T12:07:06.160Z,4.57
2023-03-17T12:08:13.449Z,4.80
2023-03-17T12:09:23.524Z,5.05
2023-03-17T12:10:29.395Z,3.72
2023-03-17T12:11:33.512Z,5.00
2023-03-17T12:12:39.693Z,4.22
2023-03-17T12:13:46.150Z,4.30
2023-03-17T12:14:49.440Z,4.05
2023-03-17T12:15:54.446Z,4.38
2023-03-17T12:17:04.774Z,7.30
2023-03-17T12:18:12.241Z,4.30
2023-03-17T12:19:19.394Z,4.43
2023-03-17T12:20:27.865Z,4.68
2023-03-17T12:21:36.903Z,4.25
2023-03-17T12:22:43.957Z,4.50
2023-03-17T12:23:48.194Z,4.60
2023-03-17T12:24:56.848Z,4.60
2023-03-17T12:26:05.122Z,4.38
2023-03-17T12:27:12.161Z,4.30
2023-03-17T12:28:17.585Z,4.10
2023-03-17T12:29:26.316Z,4.57
2023-03-17T12:30:32.580Z,4.40
2023-03-17T12:31:37.230Z,4.72
2023-03-17T12:32:42.367Z,4.10
2023-03-17T12:33:51.775Z,4.00
2023-03-17T12:34:57.281Z,4.70
2023-03-17T12:36:01.495Z,4.53
2023-03-17T12:37:03.838Z,4.05
2023-03-17T12:38:10.814Z,4.38
2023-03-17T12:39:16.318Z,4.25
2023-03-17T12:40:21.258Z,3.97
2023-03-17T12:41:40.104Z,4.43
2023-03-17T12:42:47.066Z,4.05
2023-03-17T12:44:01.688Z,3.92
2023-03-17T12:45:27.427Z,3.65
2023-03-17T12:46:51.608Z,3.83
2023-03-17T12:48:14.484Z,4.15
2023-03-17T12:49:36.823Z,4.00
2023-03-17T12:50:50.704Z,3.92
2023-03-17T12:52:04.188Z,4.10
2023-03-17T12:53:26.716Z,3.65
2023-03-17T12:54:31.901Z,3.70
2023-03-17T12:55:36.316Z,9.68
2023-03-17T12:56:44.970Z,3.60
2023-03-17T12:57:48.140Z,3.60
2023-03-17T12:58:52.099Z,4.13
2023-03-17T13:00:00.381Z,3.65
2023-03-17T13:01:09.194Z,3.85
2023-03-17T13:02:18.553Z,4.47
2023-03-17T13:03:24.885Z,3.60
2023-03-17T13:04:32.848Z,3.95
2023-03-17T13:05:37.245Z,4.00
2023-03-17T13:06:42.990Z,4.30
2023-03-17T13:07:49.956Z,3.63
2023-03-17T13:08:54.032Z,3.55
2023-03-17T13:10:13.945Z,3.80
2023-03-17T13:11:27.642Z,3.58
2023-03-17T13:12:56.524Z,2.90
2023-03-17T13:14:15.360Z,3.47
2023-03-17T13:15:30.725Z,3.88
2023-03-17T13:16:35.338Z,3.08
2023-03-17T13:17:37.130Z,5.43
2023-03-17T13:18:49.885Z,3.78
2023-03-17T13:20:04.993Z,3.63
2023-03-17T13:21:12.818Z,5.22
2023-03-17T13:22:36.322Z,3.20
2023-03-17T13:23:41.804Z,3.38
2023-03-17T13:24:48.388Z,3.92
2023-03-17T13:25:53.451Z,4.05
2023-03-17T13:26:58.407Z,4.47
2023-03-17T13:28:25.675Z,5.72
2023-03-17T13:29:47.107Z,3.63
2023-03-17T13:31:10.196Z,4.32
2023-03-17T13:32:51.184Z,3.88
2023-03-17T13:33:54.190Z,3.65
2023-03-17T13:35:16.081Z,4.00
2023-03-17T13:36:34.097Z,3.30
2023-03-17T13:37:49.404Z,3.33
2023-03-17T13:39:18.366Z,3.45
2023-03-17T13:40:23.973Z,2.80
2023-03-17T13:41:41.213Z,4.00
2023-03-17T13:42:54.606Z,3.17
2023-03-17T13:44:06.646Z,4.10
2023-03-17T13:45:25.969Z,3.80
2023-03-17T13:46:32.503Z,3.38
2023-03-17T13:47:36.805Z,3.45
2023-03-17T13:48:40.782Z,3.10
2023-03-17T13:49:47.944Z,3.97
2023-03-17T13:50:58.151Z,2.90
2023-03-17T13:52:05.696Z,3.05
2023-03-17T13:53:10.470Z,8.55
2023-03-17T13:54:22.756Z,2.88
2023-03-17T13:55:36.917Z,3.05
2023-03-17T13:56:50.179Z,3.20
2023-03-17T13:57:57.029Z,4.13
2023-03-17T13:59:12.307Z,3.53
2023-03-17T14:00:21.957Z,3.25
2023-03-17T14:01:26.280Z,2.97
2023-03-17T14:02:30.892Z,3.92
2023-03-17T14:03:41.986Z,3.70
2023-03-17T14:04:50.749Z,2.95
2023-03-17T14:05:55.749Z,3.78
2023-03-17T14:07:01.177Z,3.03
2023-03-17T14:08:06.292Z,3.30
2023-03-17T14:09:16.894Z,3.80
2023-03-17T14:10:21.796Z,3.10
2023-03-17T14:11:28.683Z,3.90
2023-03-17T14:12:38.020Z,3.40